Time;durP1;ratioP1;P1;durP2;ratioP2;P2;SDS_P1;SDS_P2;PMS_P1;PMS_P2;Temp;Humidity;BMP_temperature;BMP_pressure;BME280_temperature;BME280_humidity;BME280_pressure;Samples;Min_cycle;Max_cycle;Signal;HPM_P1;HPM_P2
2022/06/14 00:01:57;;;;;;;5.83;3.23;;;18.40;43.80;;;;;;20791;6771;117407;-89
2022/06/14 00:04:33;;;;;;;3.70;3.40;;;18.30;44.30;;;;;;20792;6771;118228;-91
2022/06/14 00:07:08;;;;;;;3.90;3.60;;;18.10;44.40;;;;;;20457;6771;281252;-89
2022/06/14 00:09:44;;;;;;;3.50;3.20;;;18.40;44.10;;;;;;20811;6771;117077;-89
2022/06/14 00:12:19;;;;;;;3.20;2.90;;;18.40;44.00;;;;;;20817;6771;116915;-93
2022/06/14 00:14:57;;;;;;;4.03;3.50;;;18.20;44.30;;;;;;20801;6771;122063;-89
2022/06/14 00:17:31;;;;;;;3.30;3.10;;;18.10;44.80;;;;;;20440;6771;279297;-89
2022/06/14 00:20:08;;;;;;;4.40;3.37;;;18.40;44.70;;;;;;20816;6771;117451;-91
2022/06/14 00:22:43;;;;;;;3.90;3.63;;;18.40;44.80;;;;;;20814;6771;117004;-89
2022/06/14 00:25:25;;;;;;;3.80;3.50;;;18.20;45.20;;;;;;20798;6771;117339;-89
2022/06/14 00:28:01;;;;;;;3.53;3.33;;;18.00;45.50;;;;;;20601;6771;117561;-89
2022/06/14 00:30:37;;;;;;;3.27;3.07;;;17.90;45.70;;;;;;20813;6771;121952;-90
2022/06/14 00:33:12;;;;;;;3.63;3.33;;;17.80;45.90;;;;;;20798;6771;118128;-89
2022/06/14 00:35:58;;;;;;;3.73;3.53;;;18.10;46.30;;;;;;20589;6771;306016;-92
2022/06/14 00:38:24;;;;;;;4.00;3.70;;;18.00;46.10;;;;;;20605;6771;337822;-90
2022/06/14 00:41:00;;;;;;;3.93;3.50;;;18.60;44.80;;;;;;20793;6771;117355;-89
2022/06/14 00:43:36;;;;;;;3.20;3.00;;;18.10;45.60;;;;;;20816;6771;117499;-92
2022/06/14 00:46:19;;;;;;;3.73;3.43;;;18.10;45.60;;;;;;20739;6771;117473;-92
2022/06/14 00:48:54;;;;;;;4.43;3.73;;;17.90;46.00;;;;;;20787;6771;119034;-89
2022/06/14 00:51:30;;;;;;;4.23;3.47;;;17.70;46.30;;;;;;20795;6771;117230;-91
2022/06/14 00:54:10;;;;;;;3.17;2.97;;;17.50;46.80;;;;;;20812;6771;117029;-89
2022/06/14 00:56:45;;;;;;;4.00;3.70;;;17.40;46.70;;;;;;20475;6771;340497;-91
2022/06/14 00:59:21;;;;;;;4.43;3.93;;;17.80;46.60;;;;;;20814;6771;118619;-90
2022/06/14 01:01:56;;;;;;;3.95;3.62;;;17.80;46.30;;;;;;20610;6771;277048;-90
2022/06/14 01:04:32;;;;;;;4.00;3.63;;;18.00;45.90;;;;;;20812;6771;117380;-92
2022/06/14 01:07:14;;;;;;;4.00;3.70;;;18.00;46.00;;;;;;20456;6771;286586;-89
2022/06/14 01:09:50;;;;;;;4.12;3.83;;;18.10;45.80;;;;;;20457;6827;281758;-92
2022/06/14 01:12:26;;;;;;;4.00;3.60;;;18.40;45.40;;;;;;20605;6771;306436;-90
2022/06/14 01:15:04;;;;;;;3.77;3.47;;;18.60;45.00;;;;;;20796;6771;119443;-90
2022/06/14 01:17:43;;;;;;;4.10;3.80;;;18.40;45.20;;;;;;20630;6770;117487;-89
2022/06/14 01:20:19;;;;;;;4.35;3.67;;;18.00;45.80;;;;;;20599;6771;337151;-93
2022/06/14 01:22:54;;;;;;;4.90;4.40;;;18.10;45.70;;;;;;20586;6771;276880;-89
2022/06/14 01:25:30;;;;;;;4.70;3.80;;;18.40;45.20;;;;;;20600;6771;276909;-90
2022/06/14 01:28:05;;;;;;;3.90;3.60;;;18.60;44.80;;;;;;20384;6842;281815;-90
2022/06/14 01:30:45;;;;;;;4.73;3.77;;;18.30;45.00;;;;;;20818;6771;117379;-90
2022/06/14 01:33:30;;;;;;;5.17;3.50;;;18.30;45.00;;;;;;20798;6771;117474;-91
2022/06/14 01:36:06;;;;;;;4.20;3.63;;;17.90;45.70;;;;;;20559;6771;308524;-90
2022/06/14 01:38:41;;;;;;;4.15;3.85;;;18.00;45.60;;;;;;20598;6771;336214;-90
2022/06/14 01:41:38;;;;;;;3.47;3.27;;;18.20;45.10;;;;;;20797;6771;117008;-89
2022/06/14 01:44:30;;;;;;;4.67;3.50;;;18.00;45.60;;;;;;20600;6771;308264;-89
2022/06/14 01:47:42;;;;;;;3.80;3.10;;;18.10;45.70;;;;;;20671;6771;117731;-89
2022/06/14 01:54:00;;;;;;;4.80;3.60;;;18.00;45.30;;;;;;20769;6786;117756;-89
2022/06/14 01:56:45;;;;;;;4.97;3.87;;;17.80;45.70;;;;;;20470;6786;299204;-89
2022/06/14 01:59:34;;;;;;;3.90;3.53;;;17.60;45.70;;;;;;20746;6786;117100;-92
2022/06/14 02:02:09;;;;;;;3.97;3.63;;;17.60;45.70;;;;;;20766;6786;117663;-90
2022/06/14 02:05:01;;;;;;;4.37;3.95;;;17.30;46.40;;;;;;20604;6771;288956;-90
2022/06/14 02:07:47;;;;;;;4.33;3.93;;;17.50;46.40;;;;;;20417;6786;311727;-92
2022/06/14 02:10:29;;;;;;;5.13;4.07;;;17.80;45.60;;;;;;20811;6771;117464;-90
2022/06/14 02:13:11;;;;;;;3.80;3.40;;;17.60;45.80;;;;;;20727;6827;118400;-92
2022/06/14 02:15:53;;;;;;;4.70;3.90;;;17.20;46.40;;;;;;20806;6771;117129;-89
2022/06/14 02:18:28;;;;;;;4.27;3.97;;;16.90;46.90;;;;;;20602;6771;307099;-89
2022/06/14 02:21:23;;;;;;;5.30;3.63;;;17.20;47.00;;;;;;20751;6786;120043;-89
2022/06/14 02:24:15;;;;;;;3.92;3.62;;;17.20;46.90;;;;;;20555;6786;306876;-92
2022/06/14 02:26:51;;;;;;;3.57;3.27;;;17.40;46.50;;;;;;20239;6825;125436;-88
2022/06/14 02:29:30;;;;;;;3.53;3.33;;;17.30;46.70;;;;;;20798;6827;117077;-89
2022/06/14 02:32:22;;;;;;;5.03;3.43;;;16.80;47.40;;;;;;20819;6771;117007;-89
2022/06/14 02:35:21;;;;;;;3.90;3.40;;;16.80;47.40;;;;;;20584;6771;309680;-89
2022/06/14 02:37:59;;;;;;;3.70;3.40;;;17.10;47.00;;;;;;20405;6771;281265;-92
2022/06/14 02:40:42;;;;;;;5.30;3.83;;;17.50;46.60;;;;;;20608;6771;276982;-92
2022/06/14 02:43:26;;;;;;;4.97;3.70;;;17.80;45.90;;;;;;20593;6771;306904;-93
2022/06/14 02:46:12;;;;;;;3.97;3.67;;;18.00;45.40;;;;;;20582;6771;278967;-88
2022/06/14 02:48:41;;;;;;;4.23;3.83;;;18.10;45.30;;;;;;20562;6786;277931;-89
2022/06/14 02:51:26;;;;;;;4.60;4.00;;;18.20;45.00;;;;;;20590;6771;279250;-89
2022/06/14 02:54:15;;;;;;;4.18;3.87;;;18.30;44.50;;;;;;20531;6786;306908;-89
2022/06/14 02:56:58;;;;;;;5.50;3.60;;;18.30;44.60;;;;;;20663;6786;119370;-89
2022/06/14 02:59:33;;;;;;;3.70;3.40;;;17.90;45.30;;;;;;20814;6771;117563;-90
2022/06/14 03:02:10;;;;;;;5.00;3.70;;;17.40;45.90;;;;;;20819;6771;116951;-90
2022/06/14 03:04:48;;;;;;;3.40;3.10;;;17.10;46.60;;;;;;20658;6842;116374;-89
2022/06/14 03:07:24;;;;;;;3.93;3.53;;;16.80;47.00;;;;;;20518;6758;307502;-89
2022/06/14 03:09:59;;;;;;;3.80;3.50;;;17.10;46.90;;;;;;20596;6788;278361;-89
2022/06/14 03:12:58;;;;;;;4.10;3.73;;;17.50;45.90;;;;;;20549;6801;299983;-90
2022/06/14 03:15:37;;;;;;;5.63;4.13;;;17.80;45.70;;;;;;20712;6803;117396;-89
2022/06/14 03:18:12;;;;;;;4.60;4.20;;;17.40;46.00;;;;;;20555;6788;279449;-89
2022/06/14 03:20:48;;;;;;;4.27;3.97;;;17.50;46.50;;;;;;20562;6784;278734;-88
2022/06/14 03:23:23;;;;;;;4.60;4.30;;;17.60;46.50;;;;;;20592;6773;335952;-88
2022/06/14 03:26:25;;;;;;;3.70;3.40;;;17.80;45.90;;;;;;20822;6812;117514;-88
2022/06/14 03:29:11;;;;;;;4.00;3.70;;;17.50;46.50;;;;;;20792;6773;117217;-90
2022/06/14 03:31:50;;;;;;;3.43;3.20;;;16.70;48.00;;;;;;20761;6788;117180;-89
2022/06/14 03:34:32;;;;;;;3.60;3.30;;;16.70;48.00;;;;;;20760;6788;117772;-89
2022/06/14 03:37:08;;;;;;;3.93;3.53;;;16.30;48.70;;;;;;20687;6773;117546;-90
2022/06/14 03:39:43;;;;;;;4.30;3.90;;;16.30;48.70;;;;;;20506;6802;281114;-90
2022/06/14 03:42:20;;;;;;;4.03;3.72;;;16.60;48.60;;;;;;20542;6788;337310;-88
2022/06/14 03:44:57;;;;;;;4.70;4.20;;;17.40;47.00;;;;;;20576;6773;309427;-89
2022/06/14 03:47:33;;;;;;;3.83;3.53;;;17.40;47.00;;;;;;20673;6773;118201;-89
2022/06/14 03:50:08;;;;;;;3.97;3.67;;;17.20;47.20;;;;;;20804;6773;119228;-89
2022/06/14 03:52:44;;;;;;;4.47;3.80;;;16.70;48.30;;;;;;20804;6773;120368;-89
2022/06/14 03:55:30;;;;;;;3.77;3.57;;;16.70;48.30;;;;;;20748;6788;117132;-89
2022/06/14 03:58:25;;;;;;;4.23;3.90;;;16.50;48.60;;;;;;20664;6773;117308;-89
2022/06/14 04:01:03;;;;;;;5.00;4.50;;;16.30;48.90;;;;;;20572;6773;307184;-90
2022/06/14 04:04:19;;;;;;;4.30;4.00;;;16.70;48.50;;;;;;20807;6773;117213;-88
2022/06/14 04:07:31;;;;;;;3.70;3.50;;;16.70;48.30;;;;;;20695;6773;120873;-90
2022/06/14 04:10:30;;;;;;;3.90;3.60;;;16.50;48.80;;;;;;20864;6756;116948;-90
2022/06/14 04:13:05;;;;;;;4.30;4.00;;;16.20;49.10;;;;;;20577;6771;336592;-89
2022/06/14 04:16:17;;;;;;;4.83;3.83;;;16.60;48.90;;;;;;20164;6827;117136;-88
2022/06/14 04:18:54;;;;;;;4.40;4.10;;;16.70;48.90;;;;;;20630;6756;336650;-90
2022/06/14 04:21:49;;;;;;;4.22;4.03;;;17.00;48.80;;;;;;20332;6827;336076;-89
2022/06/14 04:24:41;;;;;;;4.85;4.45;;;17.30;48.10;;;;;;20603;6773;336496;-89
2022/06/14 04:27:17;;;;;;;3.57;3.37;;;17.50;47.60;;;;;;20687;6773;117494;-89
2022/06/14 04:30:06;;;;;;;4.70;4.30;;;17.30;48.10;;;;;;20552;6788;306510;-89
2022/06/14 04:33:03;;;;;;;4.62;4.22;;;17.50;47.80;;;;;;20562;6784;305390;-89
2022/06/14 04:35:55;;;;;;;3.70;3.50;;;17.50;47.80;;;;;;20752;6790;122414;-89
2022/06/14 04:38:31;;;;;;;4.30;4.00;;;17.20;48.00;;;;;;20539;6788;307618;-89
2022/06/14 04:41:13;;;;;;;4.47;4.07;;;17.20;48.00;;;;;;20781;6788;127720;-88
2022/06/14 04:44:02;;;;;;;4.03;3.70;;;17.00;48.30;;;;;;20807;6779;117044;-89
2022/06/14 04:46:37;;;;;;;3.97;3.57;;;16.70;48.90;;;;;;20778;6779;117693;-88
2022/06/14 04:49:16;;;;;;;4.10;3.63;;;16.50;49.50;;;;;;20655;6798;117101;-89
2022/06/14 04:51:55;;;;;;;6.53;4.17;;;16.40;49.80;;;;;;20857;6778;116006;-89
2022/06/14 04:54:33;;;;;;;4.07;3.77;;;16.30;49.90;;;;;;20797;6788;116271;-89
2022/06/14 04:57:15;;;;;;;4.10;3.80;;;16.30;50.00;;;;;;20654;6788;117541;-88
2022/06/14 04:59:50;;;;;;;4.97;4.50;;;16.30;50.20;;;;;;20639;6763;320714;-88
2022/06/14 05:02:26;;;;;;;4.90;4.50;;;16.70;50.20;;;;;;20650;6756;308506;-88
2022/06/14 05:05:01;;;;;;;4.00;3.70;;;17.10;49.10;;;;;;20733;6792;117273;-89
2022/06/14 05:07:41;;;;;;;3.70;3.40;;;17.10;49.10;;;;;;20671;6773;117475;-88
2022/06/14 05:10:16;;;;;;;4.10;3.80;;;16.90;49.40;;;;;;20808;6773;119875;-88
2022/06/14 05:12:52;;;;;;;4.97;4.57;;;16.70;49.70;;;;;;20577;6773;308483;-89
2022/06/14 05:15:31;;;;;;;5.57;4.30;;;17.00;49.30;;;;;;20761;6788;122427;-89
2022/06/14 05:18:08;;;;;;;4.50;4.20;;;17.10;49.40;;;;;;20335;6859;281853;-89
2022/06/14 05:20:53;;;;;;;4.40;4.00;;;17.40;49.20;;;;;;20761;6788;116523;-89
2022/06/14 05:23:37;;;;;;;4.37;4.07;;;17.40;49.20;;;;;;20539;6791;310723;-89
2022/06/14 05:26:29;;;;;;;4.57;4.20;;;17.70;48.80;;;;;;20345;6868;296865;-89
2022/06/14 05:29:34;;;;;;;4.70;4.35;;;17.90;48.10;;;;;;20528;6788;279358;-89
2022/06/14 05:32:33;;;;;;;5.03;4.60;;;18.20;47.80;;;;;;20570;6780;307242;-89
2022/06/14 05:35:29;;;;;;;4.60;4.20;;;18.40;47.00;;;;;;20530;6788;307293;-89
2022/06/14 05:38:10;;;;;;;4.20;3.80;;;18.50;46.90;;;;;;20578;6788;118577;-88
2022/06/14 05:40:53;;;;;;;5.77;3.60;;;18.20;47.50;;;;;;20831;6764;117234;-88
2022/06/14 05:43:52;;;;;;;4.07;3.60;;;17.60;48.90;;;;;;20832;6764;117630;-88
2022/06/14 05:46:35;;;;;;;4.40;4.00;;;17.60;48.90;;;;;;20563;6764;309131;-88
2022/06/14 05:49:21;;;;;;;4.60;4.27;;;18.00;48.70;;;;;;20768;6764;121724;-87
2022/06/14 05:52:10;;;;;;;3.80;3.50;;;18.00;48.60;;;;;;20801;6775;117092;-90
2022/06/14 05:54:55;;;;;;;4.57;4.18;;;17.90;49.10;;;;;;20517;6798;278101;-91
2022/06/14 05:57:34;;;;;;;4.23;3.53;;;18.40;48.60;;;;;;20674;6775;123015;-92
2022/06/14 06:00:10;;;;;;;3.83;3.53;;;18.50;48.60;;;;;;20715;6793;119492;-90
2022/06/14 06:02:59;;;;;;;4.43;4.03;;;18.80;47.60;;;;;;20553;6788;277962;-87
2022/06/14 06:05:45;;;;;;;5.03;4.03;;;18.80;47.60;;;;;;20590;6773;303887;-90
2022/06/14 06:08:37;;;;;;;4.50;4.10;;;19.40;46.60;;;;;;20541;6788;308205;-91
2022/06/14 06:11:16;;;;;;;5.15;4.05;;;20.00;45.50;;;;;;20553;6773;279739;-89
2022/06/14 06:13:51;;;;;;;4.17;3.80;;;21.00;44.40;;;;;;20591;6773;309527;-90
2022/06/14 06:16:31;;;;;;;4.17;3.87;;;22.00;43.40;;;;;;20693;6788;117333;-89
2022/06/14 06:19:10;;;;;;;4.60;4.20;;;22.40;44.00;;;;;;20789;6773;122455;-90
2022/06/14 06:21:49;;;;;;;4.43;4.03;;;22.80;44.40;;;;;;20638;6758;306545;-91
2022/06/14 06:24:31;;;;;;;4.50;3.60;;;23.60;40.00;;;;;;20759;6788;117701;-92
2022/06/14 06:27:13;;;;;;;5.00;4.20;;;24.10;41.20;;;;;;20423;6788;279705;-89
2022/06/14 06:29:50;;;;;;;4.30;3.80;;;25.70;37.40;;;;;;20549;6788;278588;-88
2022/06/14 06:32:25;;;;;;;4.40;4.10;;;25.70;37.40;;;;;;20577;6778;277769;-89
2022/06/14 06:35:00;;;;;;;5.60;3.90;;;26.40;36.00;;;;;;20583;6773;279275;-88
2022/06/14 06:37:49;;;;;;;4.27;3.60;;;26.90;35.20;;;;;;20452;6773;301356;-89
2022/06/14 06:40:25;;;;;;;5.27;3.67;;;27.40;36.00;;;;;;20856;6758;117056;-88
2022/06/14 06:43:01;;;;;;;3.50;3.30;;;27.30;35.90;;;;;;20778;6778;122479;-89
2022/06/14 06:45:38;;;;;;;2.50;2.30;;;27.20;36.80;;;;;;20801;6773;117288;-91
2022/06/14 06:48:14;;;;;;;3.87;3.58;;;27.20;37.20;;;;;;20602;6788;278144;-89
2022/06/14 06:50:52;;;;;;;4.57;3.40;;;27.80;33.50;;;;;;20737;6789;117620;-88
2022/06/14 06:53:28;;;;;;;4.93;3.67;;;27.90;35.30;;;;;;20805;6773;116987;-88
2022/06/14 06:56:13;;;;;;;4.13;3.70;;;27.90;35.10;;;;;;20780;6826;117508;-93
2022/06/14 06:58:55;;;;;;;4.93;3.40;;;27.90;35.30;;;;;;20810;6773;117255;-89
2022/06/14 07:01:32;;;;;;;4.37;3.75;;;28.00;35.40;;;;;;20622;6763;338486;-89
2022/06/14 07:05:02;;;;;;;3.70;3.40;;;28.70;32.30;;;;;;20792;6778;117705;-90
2022/06/14 07:06:56;;;;;;;4.20;3.80;;;28.80;33.20;;;;;;20369;6850;310578;-90
2022/06/14 07:09:32;;;;;;;4.73;3.80;;;29.10;31.70;;;;;;20792;6778;118050;-91
2022/06/14 07:12:14;;;;;;;4.83;3.60;;;29.10;32.40;;;;;;20543;6840;289886;-92
2022/06/14 07:14:49;;;;;;;5.77;4.00;;;29.30;30.20;;;;;;20524;6789;309037;-89
2022/06/14 07:17:25;;;;;;;5.62;4.32;;;29.60;30.00;;;;;;20395;6789;281185;-93
2022/06/14 07:20:05;;;;;;;4.03;3.63;;;29.50;29.90;;;;;;20697;6803;117159;-90
2022/06/14 07:22:43;;;;;;;4.23;3.80;;;29.50;29.90;;;;;;20806;6773;118182;-88
2022/06/14 07:25:26;;;;;;;4.07;3.67;;;29.10;30.90;;;;;;20685;6807;117337;-89
2022/06/14 07:28:02;;;;;;;4.82;4.40;;;28.80;31.00;;;;;;20338;6803;328252;-88
2022/06/14 07:30:41;;;;;;;6.10;4.53;;;28.60;29.30;;;;;;20495;6803;309605;-89
2022/06/14 07:33:17;;;;;;;4.47;4.07;;;28.50;29.60;;;;;;20744;6788;117316;-88
2022/06/14 07:36:02;;;;;;;7.77;4.37;;;28.10;30.50;;;;;;20799;6771;116804;-87
2022/06/14 07:39:01;;;;;;;4.53;3.90;;;27.60;31.50;;;;;;20558;6784;278185;-89
2022/06/14 07:41:49;;;;;;;4.10;3.80;;;27.50;31.00;;;;;;20770;6784;117013;-88
2022/06/14 07:44:26;;;;;;;4.10;3.70;;;27.30;31.50;;;;;;20598;6773;280093;-88
2022/06/14 07:47:05;;;;;;;4.70;3.85;;;27.30;31.20;;;;;;20522;6758;337703;-91
2022/06/14 07:49:40;;;;;;;6.90;4.23;;;27.40;30.80;;;;;;20596;6773;278179;-88
2022/06/14 07:52:30;;;;;;;7.57;4.33;;;27.40;31.20;;;;;;20751;6788;117700;-88
2022/06/14 07:55:08;;;;;;;5.37;4.03;;;27.40;31.20;;;;;;20741;6788;122665;-89
2022/06/14 07:57:45;;;;;;;5.10;3.85;;;27.10;32.10;;;;;;20457;6774;338633;-90
2022/06/14 08:03:32;;;;;;;4.90;4.00;;;27.30;32.10;;;;;;20574;6773;336416;-87
2022/06/14 08:06:20;;;;;;;4.43;4.03;;;27.40;31.20;;;;;;20557;6773;311416;-87
2022/06/14 08:08:59;;;;;;;5.13;3.87;;;27.60;30.20;;;;;;20607;6764;278421;-88
2022/06/14 08:11:48;;;;;;;4.10;3.70;;;27.70;30.70;;;;;;20569;6778;309475;-88
2022/06/14 08:14:35;;;;;;;4.47;3.73;;;27.70;31.20;;;;;;20580;6775;307185;-90
2022/06/14 08:17:11;;;;;;;6.90;4.30;;;27.70;30.60;;;;;;20718;6758;122402;-90
2022/06/14 08:19:49;;;;;;;4.37;3.60;;;27.50;31.20;;;;;;20855;6758;117460;-89
2022/06/14 08:22:38;;;;;;;4.23;3.67;;;27.20;32.10;;;;;;20533;6788;279995;-89
2022/06/14 08:25:14;;;;;;;3.92;3.53;;;27.40;31.20;;;;;;20524;6788;336291;-91
2022/06/14 08:27:53;;;;;;;3.70;3.40;;;27.70;32.40;;;;;;20611;6788;117975;-89
2022/06/14 08:30:35;;;;;;;5.60;3.87;;;27.60;32.30;;;;;;20486;6844;307421;-92
2022/06/14 08:33:18;;;;;;;4.53;4.00;;;28.20;32.40;;;;;;20563;6773;308412;-89
2022/06/14 08:35:53;;;;;;;5.03;3.50;;;28.20;31.90;;;;;;20770;6773;121590;-89
2022/06/14 08:38:39;;;;;;;4.27;3.87;;;28.10;32.20;;;;;;20625;6763;276396;-91
2022/06/14 08:41:27;;;;;;;4.77;3.73;;;28.10;32.40;;;;;;20812;6763;119776;-90
2022/06/14 08:44:03;;;;;;;3.90;3.50;;;28.10;32.40;;;;;;20822;6763;117115;-90
2022/06/14 08:46:42;;;;;;;5.97;4.10;;;27.90;32.70;;;;;;20535;6763;278955;-89
2022/06/14 08:49:47;;;;;;;4.20;3.80;;;28.00;32.00;;;;;;20609;6762;276391;-89
2022/06/14 08:52:44;;;;;;;3.80;3.50;;;28.30;32.70;;;;;;20620;6763;308090;-90
2022/06/14 08:55:46;;;;;;;3.83;3.43;;;28.60;30.50;;;;;;20822;6762;117953;-89
2022/06/14 08:58:27;;;;;;;4.13;3.30;;;28.60;31.10;;;;;;20837;6763;118021;-88
2022/06/14 09:01:29;;;;;;;3.77;3.30;;;28.20;31.70;;;;;;20819;6763;119858;-92
2022/06/14 09:04:15;;;;;;;3.77;2.70;;;28.00;31.80;;;;;;20839;6763;117446;-90
2022/06/14 09:06:56;;;;;;;3.47;3.10;;;27.80;31.10;;;;;;20511;6763;278994;-88
2022/06/14 09:09:56;;;;;;;4.23;3.60;;;28.10;30.70;;;;;;20848;6763;120784;-89
2022/06/14 09:12:42;;;;;;;3.10;2.87;;;27.90;31.20;;;;;;20829;6763;114498;-90
2022/06/14 09:15:54;;;;;;;;;;;;;;;;;;;;;
2022/06/14 09:18:36;;;;;;;3.20;2.97;;;27.80;31.50;;;;;;20767;6834;118157;-93
2022/06/14 09:21:38;;;;;;;4.23;3.20;;;27.70;32.10;;;;;;20801;6763;117434;-87
2022/06/14 09:24:33;;;;;;;4.53;2.97;;;27.70;31.40;;;;;;19674;6819;289824;-89
2022/06/14 09:27:22;;;;;;;6.57;3.10;;;28.10;29.30;;;;;;20670;6763;117523;-92
2022/06/14 09:30:20;;;;;;;3.23;2.90;;;28.10;29.60;;;;;;20840;6763;117442;-89
2022/06/14 09:33:09;;;;;;;2.93;2.47;;;27.90;30.00;;;;;;20822;6763;120917;-88
2022/06/14 09:36:08;;;;;;;3.30;3.00;;;27.80;30.00;;;;;;20251;6817;117168;-88
2022/06/14 09:39:21;;;;;;;3.97;3.07;;;27.80;30.00;;;;;;20846;6762;117040;-88
2022/06/14 09:42:24;;;;;;;3.67;2.67;;;27.80;30.40;;;;;;20839;6762;117096;-88
2022/06/14 09:45:16;;;;;;;3.73;3.37;;;27.90;31.20;;;;;;20830;6762;120053;-90
2022/06/14 09:48:04;;;;;;;5.90;3.13;;;28.00;31.00;;;;;;20652;6763;117419;-89
2022/06/14 09:51:02;;;;;;;5.00;3.20;;;28.00;30.90;;;;;;20840;6763;117468;-89
2022/06/14 09:53:50;;;;;;;4.63;2.63;;;28.10;30.70;;;;;;20634;6763;306178;-88
2022/06/14 09:56:40;;;;;;;3.03;2.80;;;28.60;28.80;;;;;;20574;6763;337198;-89
2022/06/14 09:59:35;;;;;;;3.10;2.80;;;29.00;27.20;;;;;;20630;6763;280917;-88
2022/06/14 10:02:45;;;;;;;3.03;2.60;;;29.50;29.00;;;;;;20858;6763;116820;-89
2022/06/14 10:05:35;;;;;;;2.60;2.40;;;29.20;28.80;;;;;;20827;6762;117857;-90
2022/06/14 10:08:30;;;;;;;3.10;2.80;;;29.20;28.80;;;;;;20468;6819;281928;-92
2022/06/14 10:11:26;;;;;;;3.40;3.10;;;29.40;28.00;;;;;;20841;6758;118698;-89
2022/06/14 10:14:21;;;;;;;3.10;2.90;;;29.40;28.60;;;;;;20551;6788;306804;-90
2022/06/14 10:17:06;;;;;;;3.23;2.73;;;29.50;27.90;;;;;;20697;6773;118695;-89
2022/06/14 10:20:02;;;;;;;3.00;2.70;;;29.40;28.30;;;;;;20539;6793;307901;-93
2022/06/14 10:23:13;;;;;;;4.13;2.97;;;29.60;28.20;;;;;;20497;6803;308766;-89
2022/06/14 10:29:41;;;;;;;4.37;3.10;;;30.20;27.20;;;;;;20584;6773;277747;-86
2022/06/14 10:32:28;;;;;;;3.13;2.83;;;30.40;27.00;;;;;;20553;6778;280310;-89
2022/06/14 10:35:13;;;;;;;2.90;2.70;;;30.50;26.70;;;;;;20524;6788;307114;-88
2022/06/14 10:38:05;;;;;;;2.60;2.43;;;30.70;26.20;;;;;;20642;6769;117419;-90
2022/06/14 10:41:14;;;;;;;3.12;2.83;;;30.50;26.60;;;;;;20592;6773;279721;-89
2022/06/14 10:43:47;;;;;;;3.13;2.83;;;30.30;27.20;;;;;;20811;6773;117448;-90
2022/06/14 10:46:29;;;;;;;3.33;2.93;;;30.30;27.20;;;;;;20499;6792;280631;-89
2022/06/14 10:49:37;;;;;;;3.77;2.80;;;30.30;26.10;;;;;;20807;6773;121023;-96
2022/06/14 10:52:46;;;;;;;3.67;3.00;;;30.10;27.00;;;;;;20861;6773;116242;-96
2022/06/14 10:55:45;;;;;;;3.30;3.00;;;29.40;28.50;;;;;;20739;6788;117175;-86
2022/06/14 10:58:44;;;;;;;4.97;4.20;;;29.30;28.50;;;;;;20763;6803;122026;-89
2022/06/14 11:01:24;;;;;;;5.20;3.75;;;29.20;29.00;;;;;;20573;6773;336209;-92
2022/06/14 11:04:06;;;;;;;3.40;3.07;;;29.40;28.80;;;;;;20794;6829;117888;-92
2022/06/14 11:06:48;;;;;;;3.03;2.83;;;29.10;28.90;;;;;;20494;6829;121550;-92
2022/06/14 11:09:40;;;;;;;4.37;3.40;;;29.10;28.90;;;;;;20565;6801;300814;-94
2022/06/14 11:12:35;;;;;;;3.63;3.23;;;29.20;27.90;;;;;;20834;6788;116850;-93
2022/06/14 11:15:14;;;;;;;3.60;3.30;;;29.10;28.30;;;;;;20893;6773;117272;-95
2022/06/14 11:18:22;;;;;;;6.07;3.47;;;29.00;29.10;;;;;;20904;6788;66783;-94
2022/06/14 11:20:58;;;;;;;4.43;3.63;;;28.80;29.30;;;;;;20652;6778;305690;-91
2022/06/14 11:23:33;;;;;;;5.50;3.60;;;28.90;29.50;;;;;;20651;6778;306569;-84
2022/06/14 11:26:22;;;;;;;4.10;3.13;;;29.20;28.00;;;;;;20716;6846;118161;-93
2022/06/14 11:29:04;;;;;;;4.23;3.20;;;29.30;28.80;;;;;;20903;6764;116686;-94
2022/06/14 11:31:44;;;;;;;4.20;3.28;;;29.20;29.20;;;;;;20700;6764;316284;-92
2022/06/14 11:34:26;;;;;;;3.93;3.53;;;29.40;29.10;;;;;;20937;6763;117225;-93
2022/06/14 11:37:11;;;;;;;5.13;3.10;;;29.30;29.00;;;;;;20584;6763;306428;-94
2022/06/14 11:39:48;;;;;;;3.47;3.20;;;29.40;28.80;;;;;;20785;6788;117073;-89
2022/06/14 11:42:32;;;;;;;4.78;3.50;;;29.30;29.10;;;;;;20549;6788;324022;-88
2022/06/14 11:45:14;;;;;;;3.40;3.10;;;29.40;28.90;;;;;;20752;6790;122087;-88
2022/06/14 11:47:53;;;;;;;3.23;2.93;;;29.40;29.40;;;;;;20380;6792;281291;-88
2022/06/14 11:50:32;;;;;;;6.80;3.20;;;29.50;28.50;;;;;;20752;6790;117180;-89
2022/06/14 11:53:21;;;;;;;4.77;3.20;;;29.50;28.80;;;;;;20790;6773;117427;-89
2022/06/14 11:55:56;;;;;;;3.70;3.30;;;29.40;29.50;;;;;;20575;6773;309409;-88
2022/06/14 11:58:35;;;;;;;3.85;3.37;;;29.50;28.60;;;;;;20649;6758;276926;-89
2022/06/14 12:01:17;;;;;;;4.13;3.27;;;29.70;29.80;;;;;;20822;6814;117379;-88
2022/06/14 12:03:56;;;;;;;3.37;3.10;;;29.60;29.20;;;;;;20771;6788;117308;-88
2022/06/14 12:06:54;;;;;;;3.50;3.20;;;29.30;29.60;;;;;;20547;6773;308841;-89
2022/06/14 12:09:50;;;;;;;3.43;3.10;;;29.40;29.10;;;;;;20847;6763;117322;-91
2022/06/14 12:12:29;;;;;;;3.23;2.93;;;29.30;29.20;;;;;;20811;6778;66865;-88
2022/06/14 12:15:07;;;;;;;5.10;3.37;;;29.00;29.40;;;;;;20777;6777;121201;-89
2022/06/14 12:17:42;;;;;;;3.70;3.40;;;28.80;29.50;;;;;;20389;6880;118836;-88
2022/06/14 12:20:19;;;;;;;3.40;3.10;;;28.60;29.70;;;;;;20877;6758;117164;-88
2022/06/14 12:22:55;;;;;;;3.87;3.00;;;28.60;29.50;;;;;;20791;6773;121122;-93
2022/06/14 12:28:59;;;;;;;3.55;3.25;;;28.30;30.70;;;;;;20595;6773;278377;-89
2022/06/14 12:31:44;;;;;;;3.93;3.37;;;28.70;30.00;;;;;;20601;6773;302920;-89
2022/06/14 12:34:26;;;;;;;3.07;2.77;;;29.30;29.90;;;;;;20455;6844;117872;-90
2022/06/14 12:37:09;;;;;;;3.80;3.20;;;29.40;29.70;;;;;;20486;6773;310543;-92
2022/06/14 12:39:42;;;;;;;3.53;3.00;;;29.60;28.70;;;;;;20731;6845;117186;-90
2022/06/14 12:42:27;;;;;;;3.50;3.20;;;29.50;29.00;;;;;;19518;6834;307343;-91
2022/06/14 12:45:12;;;;;;;3.40;3.10;;;29.60;28.70;;;;;;20513;6790;306340;-91
2022/06/14 12:48:01;;;;;;;4.75;2.87;;;29.80;28.40;;;;;;20375;6788;309942;-89
2022/06/14 12:50:51;;;;;;;3.27;2.97;;;30.10;28.60;;;;;;20512;6792;307293;-90
2022/06/14 12:53:39;;;;;;;3.50;3.20;;;30.10;28.20;;;;;;20522;6792;307750;-89
2022/06/14 12:56:15;;;;;;;3.43;3.13;;;30.10;28.00;;;;;;20542;6773;308417;-90
2022/06/14 12:58:57;;;;;;;3.37;3.10;;;30.10;27.90;;;;;;20562;6774;308323;-92
2022/06/14 13:01:42;;;;;;;3.73;3.30;;;30.00;28.30;;;;;;20540;6788;308370;-94
2022/06/14 13:04:21;;;;;;;4.07;3.40;;;30.00;28.00;;;;;;20524;6830;279676;-87
2022/06/14 13:07:03;;;;;;;3.93;3.20;;;30.00;28.30;;;;;;20645;6788;117657;-94
2022/06/14 13:10:38;;;;;;;5.33;3.40;;;29.70;28.70;;;;;;20546;6788;282861;-91
2022/06/14 13:13:40;;;;;;;;;;;;;;;;;;;;;
2022/06/14 13:16:09;;;;;;;5.13;3.23;;;29.60;29.00;;;;;;20732;6788;117529;-90
2022/06/14 13:19:02;;;;;;;3.50;3.20;;;29.40;29.40;;;;;;20570;6785;307612;-91
2022/06/14 13:21:47;;;;;;;3.80;3.20;;;29.40;28.40;;;;;;20799;6780;117969;-92
2022/06/14 13:24:42;;;;;;;3.50;3.20;;;29.20;29.00;;;;;;20805;6775;120043;-91
2022/06/14 13:27:28;;;;;;;3.62;3.30;;;28.80;29.50;;;;;;20484;6773;320627;-90
2022/06/14 13:30:03;;;;;;;3.83;3.30;;;28.90;29.50;;;;;;20585;6773;289292;-94
2022/06/14 13:33:12;;;;;;;3.60;3.30;;;29.20;29.30;;;;;;20638;6758;277186;-91
2022/06/14 13:36:01;;;;;;;3.60;3.28;;;29.40;29.00;;;;;;20568;6773;337398;-90
2022/06/14 13:38:37;;;;;;;3.10;2.90;;;29.40;28.90;;;;;;20597;6773;277822;-91
2022/06/14 13:41:12;;;;;;;15.27;4.00;;;29.50;28.70;;;;;;20556;6773;311052;-91
2022/06/14 13:43:54;;;;;;;3.30;2.93;;;29.60;28.90;;;;;;20746;6788;118536;-91
2022/06/14 13:46:31;;;;;;;3.73;3.10;;;29.40;29.30;;;;;;20627;6803;117799;-91
2022/06/14 13:49:17;;;;;;;3.40;3.10;;;29.10;29.60;;;;;;20785;6773;117426;-91
2022/06/14 13:52:10;;;;;;;4.60;3.10;;;29.00;28.90;;;;;;20527;6788;310853;-90
2022/06/14 13:54:58;;;;;;;3.60;3.30;;;29.00;29.10;;;;;;20500;6803;308776;-90
2022/06/14 13:57:34;;;;;;;3.03;2.83;;;29.20;28.70;;;;;;20616;6778;117643;-90
2022/06/14 14:00:16;;;;;;;3.63;3.33;;;29.00;29.40;;;;;;20536;6788;279849;-91
2022/06/14 14:02:55;;;;;;;3.43;3.13;;;29.00;28.50;;;;;;20739;6801;120326;-89
2022/06/14 14:05:31;;;;;;;3.23;2.90;;;28.90;29.10;;;;;;20726;6842;117592;-90
2022/06/14 14:08:23;;;;;;;3.00;2.90;;;28.60;29.40;;;;;;20575;6830;118334;-87
2022/06/14 14:11:12;;;;;;;3.50;3.05;;;28.30;29.80;;;;;;20598;6759;307610;-88
2022/06/14 14:13:47;;;;;;;3.07;2.87;;;28.50;29.80;;;;;;20585;6773;293428;-91
2022/06/14 14:16:39;;;;;;;3.77;2.93;;;28.80;29.60;;;;;;20761;6764;117479;-89
2022/06/14 14:19:18;;;;;;;3.10;2.90;;;28.80;29.80;;;;;;20821;6764;119629;-89